createdAt,value
2023-01-10T00:00:37.399Z,100500.22
2023-01-10T00:03:43.748Z,100499.38
2023-01-10T00:06:49.504Z,100492.66
2023-01-10T00:09:57.703Z,100501.03
2023-01-10T00:13:20.562Z,100492.66
2023-01-10T00:16:27.794Z,100490.13
2023-01-10T00:19:34.097Z,100491.81
2023-01-10T00:22:41.524Z,100486.78
2023-01-10T00:25:46.741Z,100475.88
2023-01-10T00:28:54.514Z,100475.03
2023-01-10T00:32:01.802Z,100471.66
2023-01-10T00:35:09.856Z,100482.56
2023-01-10T00:38:15.628Z,100469.13
2023-01-10T00:41:38.221Z,100474.19
2023-01-10T00:44:47.411Z,100474.19
2023-01-10T00:47:58.951Z,100481.72
2023-01-10T00:51:04.131Z,100483.41
2023-01-10T00:54:16.320Z,100485.94
2023-01-10T00:57:26.957Z,100473.34
2023-01-10T01:00:33.221Z,100480.06
2023-01-10T01:03:40.154Z,100478.38
2023-01-10T01:06:47.272Z,100489.28
2023-01-10T01:10:10.273Z,100491.81
2023-01-10T01:13:17.263Z,100494.34
2023-01-10T01:16:24.601Z,100487.63
2023-01-10T01:19:37.174Z,100496.03
2023-01-10T01:22:48.019Z,100490.13
2023-01-10T01:25:54.778Z,100499.38
2023-01-10T01:29:00.748Z,100501.03
2023-01-10T01:32:09.230Z,100493.50
2023-01-10T01:35:17.681Z,100497.69
2023-01-10T01:38:23.210Z,100498.53
2023-01-10T01:41:46.170Z,100502.72
2023-01-10T01:45:38.499Z,100495.16
2023-01-10T01:48:46.073Z,100498.53
2023-01-10T01:52:10.785Z,100496.00
2023-01-10T01:55:17.189Z,100490.97
2023-01-10T01:58:30.234Z,100487.59
2023-01-10T02:01:36.307Z,100494.34
2023-01-10T02:04:47.197Z,100494.31
2023-01-10T02:07:59.325Z,100494.31
2023-01-10T02:14:32.742Z,100498.53
2023-01-10T02:17:41.974Z,100498.50
2023-01-10T02:21:11.074Z,100505.25
2023-01-10T02:24:46.920Z,100511.97
2023-01-10T02:28:20.380Z,100505.25
2023-01-10T02:31:54.779Z,100507.75
2023-01-10T02:35:11.543Z,100494.31
2023-01-10T02:38:28.576Z,100502.72
2023-01-10T02:41:41.932Z,100499.34
2023-01-10T02:44:50.870Z,100491.81
2023-01-10T02:48:05.894Z,100498.53
2023-01-10T02:51:21.395Z,100500.22
2023-01-10T02:54:36.053Z,100487.59
2023-01-10T02:57:49.019Z,100494.31
2023-01-10T03:01:07.032Z,100501.06
2023-01-10T03:04:22.950Z,100486.75
2023-01-10T03:07:34.183Z,100489.28
2023-01-10T03:10:43.764Z,100487.56
2023-01-10T03:13:53.365Z,100488.44
2023-01-10T03:17:04.969Z,100487.59
2023-01-10T03:20:13.402Z,100486.75
2023-01-10T03:23:21.836Z,100485.09
2023-01-10T03:26:31.570Z,100480.88
2023-01-10T03:29:41.771Z,100480.88
2023-01-10T03:32:47.568Z,100480.03
2023-01-10T03:36:02.247Z,100483.41
2023-01-10T03:39:18.425Z,100485.09
2023-01-10T03:42:51.181Z,100478.38
2023-01-10T03:45:59.656Z,100484.25
2023-01-10T03:49:07.092Z,100487.59
2023-01-10T03:52:16.245Z,100494.31
2023-01-10T03:55:25.002Z,100489.31
2023-01-10T03:58:33.700Z,100489.31
2023-01-10T04:01:38.906Z,100491.81
2023-01-10T04:04:44.813Z,100507.75
2023-01-10T04:07:51.044Z,100505.22
2023-01-10T04:10:58.349Z,100502.72
2023-01-10T04:14:06.401Z,100505.25
2023-01-10T04:17:13.750Z,100513.66
2023-01-10T04:20:19.960Z,100522.06
2023-01-10T04:23:33.283Z,100518.72
2023-01-10T04:27:06.327Z,100513.66
2023-01-10T04:30:13.410Z,100516.19
2023-01-10T04:33:18.415Z,100509.47
2023-01-10T04:36:23.703Z,100506.94
2023-01-10T04:39:32.433Z,100507.78
2023-01-10T04:42:40.970Z,100499.38
2023-01-10T04:45:46.350Z,100503.59
2023-01-10T04:49:01.981Z,100496.84
2023-01-10T04:52:07.436Z,100493.50
2023-01-10T04:55:15.616Z,100493.50
2023-01-10T04:58:23.317Z,100496.84
2023-01-10T05:01:29.767Z,100501.03
2023-01-10T05:04:37.230Z,100492.66
2023-01-10T05:07:43.870Z,100498.53
2023-01-10T05:10:50.191Z,100495.16
2023-01-10T05:14:00.089Z,100499.34
2023-01-10T05:17:08.236Z,100491.81
2023-01-10T05:20:16.183Z,100483.41
2023-01-10T05:23:25.402Z,100490.13
2023-01-10T05:26:35.367Z,100492.66
2023-01-10T05:29:46.772Z,100491.78
2023-01-10T05:32:53.062Z,100499.38
2023-01-10T05:35:58.558Z,100495.13
2023-01-10T05:39:07.954Z,100504.38
2023-01-10T05:42:16.225Z,100501.03
2023-01-10T05:45:23.846Z,100511.09
2023-01-10T05:48:32.124Z,100507.75
2023-01-10T05:51:42.484Z,100508.59
2023-01-10T05:54:47.546Z,100512.78
2023-01-10T05:57:55.126Z,100512.75
2023-01-10T06:01:05.974Z,100510.25
2023-01-10T06:04:23.886Z,100518.66
2023-01-10T06:07:32.785Z,100511.09
2023-01-10T06:10:42.104Z,100509.38
2023-01-10T06:13:49.212Z,100509.38
2023-01-10T06:16:55.804Z,100523.66
2023-01-10T06:20:01.295Z,100513.56
2023-01-10T06:23:06.482Z,100525.34
2023-01-10T06:26:13.381Z,100514.41
2023-01-10T06:29:21.291Z,100522.81
2023-01-10T06:32:29.029Z,100518.56
2023-01-10T06:35:34.799Z,100516.88
2023-01-10T06:38:41.288Z,100523.63
2023-01-10T06:41:46.638Z,100533.72
2023-01-10T06:44:56.738Z,100544.59
2023-01-10T06:48:07.125Z,100541.28
2023-01-10T06:51:13.106Z,100532.81
2023-01-10T06:54:19.681Z,100527.75
2023-01-10T06:57:25.365Z,100539.53
2023-01-10T07:00:31.535Z,100547.91
2023-01-10T07:03:38.284Z,100544.53
2023-01-10T07:06:43.427Z,100543.69
2023-01-10T07:09:48.843Z,100544.53
2023-01-10T07:12:55.665Z,100544.50
2023-01-10T07:16:04.590Z,100551.19
2023-01-10T07:19:13.542Z,100549.53
2023-01-10T07:22:19.424Z,100554.56
2023-01-10T07:25:24.731Z,100566.34
2023-01-10T07:28:30.170Z,100579.81
2023-01-10T07:31:35.551Z,100581.50
2023-01-10T07:34:42.246Z,100579.81
2023-01-10T07:37:47.346Z,100588.22
2023-01-10T07:40:52.674Z,100594.97
2023-01-10T07:43:58.022Z,100601.72
2023-01-10T07:47:03.713Z,100601.72
2023-01-10T07:50:11.706Z,100615.19
2023-01-10T07:53:17.095Z,100630.34
2023-01-10T07:56:22.531Z,100639.63
2023-01-10T07:59:27.698Z,100642.13
2023-01-10T08:02:33.085Z,100643.81
2023-01-10T08:05:40.052Z,100648.88
2023-01-10T08:08:45.493Z,100637.94
2023-01-10T08:11:50.650Z,100650.53
2023-01-10T08:14:55.971Z,100651.34
2023-01-10T08:18:04.744Z,100645.50
2023-01-10T08:21:14.894Z,100642.97
2023-01-10T08:24:20.132Z,100658.09
2023-01-10T08:27:25.174Z,100658.09
2023-01-10T08:30:30.466Z,100661.44
2023-01-10T08:33:35.622Z,100669.88
2023-01-10T08:36:42.694Z,100664.00
2023-01-10T08:39:47.894Z,100667.34
2023-01-10T08:42:59.254Z,100672.41
2023-01-10T08:46:04.511Z,100685.94
2023-01-10T08:49:10.706Z,100686.72
2023-01-10T08:52:17.267Z,100696.78
2023-01-10T08:55:22.951Z,100694.25
2023-01-10T08:58:27.998Z,100695.09
2023-01-10T09:01:33.660Z,100701.78
2023-01-10T09:04:38.941Z,100705.19
2023-01-10T09:07:46.588Z,100707.72
2023-01-10T09:10:53.168Z,100716.09
2023-01-10T09:13:58.053Z,100724.53
2023-01-10T09:17:03.165Z,100733.78
2023-01-10T09:20:10.621Z,100738.00
2023-01-10T09:23:20.210Z,100736.31
2023-01-10T09:26:25.851Z,100749.81
2023-01-10T09:29:30.977Z,100748.94
2023-01-10T09:32:36.183Z,100756.53
2023-01-10T09:35:42.875Z,100764.09
2023-01-10T09:38:50.168Z,100765.81
2023-01-10T09:42:06.770Z,100772.56
2023-01-10T09:45:18.114Z,100771.72
2023-01-10T09:48:28.467Z,100782.63
2023-01-10T09:51:38.500Z,100780.94
2023-01-10T09:54:45.673Z,100782.63
2023-01-10T09:57:51.526Z,100783.47
2023-01-10T10:00:58.784Z,100785.13
2023-01-10T10:04:09.279Z,100795.22
2023-01-10T10:07:17.842Z,100793.56
2023-01-10T10:10:27.479Z,100804.53
2023-01-10T10:13:43.186Z,100802.00
2023-01-10T10:17:01.153Z,100809.59
2023-01-10T10:20:21.628Z,100806.19
2023-01-10T10:23:53.165Z,100800.25
2023-01-10T10:27:01.612Z,100805.31
2023-01-10T10:30:19.404Z,100801.91
2023-01-10T10:33:39.908Z,100798.50
2023-01-10T10:36:49.335Z,100812.00
2023-01-10T10:39:56.887Z,100807.81
2023-01-10T10:43:15.553Z,100813.69
2023-01-10T10:46:20.729Z,100821.31
2023-01-10T10:49:36.486Z,100830.63
2023-01-10T10:52:42.421Z,100838.16
2023-01-10T10:55:48.173Z,100829.78
2023-01-10T10:58:56.107Z,100837.31
2023-01-10T11:02:01.712Z,100850.84
2023-01-10T11:05:10.477Z,100835.69
2023-01-10T11:08:19.219Z,100835.63
2023-01-10T11:11:27.456Z,100836.53
2023-01-10T11:14:46.164Z,100830.56
2023-01-10T11:18:06.579Z,100828.09
2023-01-10T11:21:14.789Z,100823.03
2023-01-10T11:24:24.966Z,100834.81
2023-01-10T11:27:32.564Z,100839.00
2023-01-10T11:30:39.613Z,100831.41
2023-01-10T11:33:44.770Z,100826.41
2023-01-10T11:36:56.956Z,100825.50
2023-01-10T11:40:16.841Z,100839.91
2023-01-10T11:43:29.164Z,100834.78
2023-01-10T11:46:36.235Z,100827.19
2023-01-10T11:49:43.903Z,100831.41
2023-01-10T11:52:50.363Z,100837.31
2023-01-10T11:55:55.344Z,100856.75
2023-01-10T11:59:12.814Z,100843.22
2023-01-10T12:02:24.652Z,100844.06
2023-01-10T12:05:30.383Z,100840.69
2023-01-10T12:08:37.936Z,100842.38
2023-01-10T12:11:43.196Z,100842.38
2023-01-10T12:14:48.977Z,100845.75
2023-01-10T12:17:57.295Z,100839.84
2023-01-10T12:21:02.245Z,100844.06
2023-01-10T12:24:12.646Z,100852.50
2023-01-10T12:27:20.049Z,100847.44
2023-01-10T12:30:32.744Z,100855.84
2023-01-10T12:33:46.562Z,100859.22
2023-01-10T12:36:59.686Z,100860.03
2023-01-10T12:40:11.157Z,100871.03
2023-01-10T12:43:37.050Z,100873.56
2023-01-10T12:47:09.249Z,100878.59
2023-01-10T12:50:22.788Z,100877.75
2023-01-10T12:53:33.691Z,100891.25
2023-01-10T12:56:40.561Z,100881.13
2023-01-10T12:59:47.745Z,100894.63
2023-01-10T13:02:58.690Z,100877.72
2023-01-10T13:06:08.314Z,100886.16
2023-01-10T13:09:17.627Z,100897.13
2023-01-10T13:12:26.327Z,100895.41
2023-01-10T13:15:39.288Z,100894.56
2023-01-10T13:19:02.323Z,100898.78
2023-01-10T13:22:26.665Z,100907.19
2023-01-10T13:25:38.331Z,100913.97
2023-01-10T13:28:56.259Z,100906.34
2023-01-10T13:32:05.609Z,100925.78
2023-01-10T13:35:16.855Z,100915.63
2023-01-10T13:38:27.277Z,100917.28
2023-01-10T13:42:24.345Z,100928.31
2023-01-10T13:45:31.657Z,100930.00
2023-01-10T13:48:38.528Z,100934.22
2023-01-10T13:52:40.187Z,100935.91
2023-01-10T13:56:00.075Z,100942.66
2023-01-10T13:59:44.763Z,100947.72
2023-01-10T14:02:50.778Z,100952.78
2023-01-10T14:05:58.021Z,100954.47
2023-01-10T14:09:04.617Z,100961.22
2023-01-10T14:12:24.700Z,100952.78
2023-01-10T14:15:32.551Z,100962.91
2023-01-10T14:18:41.943Z,100963.75
2023-01-10T14:21:48.462Z,100969.69
2023-01-10T14:24:54.907Z,100962.09
2023-01-10T14:28:02.170Z,100970.50
2023-01-10T14:31:10.452Z,100982.31
2023-01-10T14:34:21.078Z,100971.34
2023-01-10T14:37:29.588Z,100972.19
2023-01-10T14:40:41.978Z,100983.16
2023-01-10T14:43:54.717Z,100978.09
2023-01-10T14:47:03.430Z,100981.47
2023-01-10T14:50:24.611Z,100982.31
2023-01-10T14:53:31.432Z,100990.78
2023-01-10T14:56:40.522Z,100991.63
2023-01-10T14:59:47.348Z,100993.31
2023-01-10T15:02:52.670Z,100988.22
2023-01-10T15:05:59.494Z,101002.56
2023-01-10T15:09:06.164Z,100994.16
2023-01-10T15:12:14.873Z,100993.31
2023-01-10T15:15:24.342Z,100984.88
2023-01-10T15:18:34.030Z,100995.84
2023-01-10T15:21:43.624Z,100991.63
2023-01-10T15:25:01.215Z,100999.22
2023-01-10T15:28:07.642Z,101007.66
2023-01-10T15:31:17.119Z,101000.91
2023-01-10T15:34:24.495Z,101009.34
2023-01-10T15:37:34.195Z,101009.38
2023-01-10T15:40:41.479Z,101020.34
2023-01-10T15:43:47.372Z,101017.78
2023-01-10T15:46:58.633Z,101015.28
2023-01-10T15:50:04.274Z,101018.66
2023-01-10T15:53:11.586Z,101027.09
2023-01-10T15:56:20.915Z,101026.25
2023-01-10T15:59:29.004Z,101034.66
2023-01-10T16:02:37.939Z,101030.44
2023-01-10T16:05:54.919Z,101029.63
2023-01-10T16:09:01.378Z,101049.03
2023-01-10T16:12:24.333Z,101040.59
2023-01-10T16:15:30.739Z,101044.81
2023-01-10T16:18:38.881Z,101044.81
2023-01-10T16:21:46.366Z,101044.81
2023-01-10T16:24:52.941Z,101042.28
2023-01-10T16:27:58.497Z,101060.84
2023-01-10T16:31:06.221Z,101057.44
2023-01-10T16:34:13.429Z,101060.84
2023-01-10T16:37:19.537Z,101065.03
2023-01-10T16:40:26.992Z,101064.22
2023-01-10T16:43:31.125Z,101064.22
2023-01-10T16:46:36.783Z,101068.44
2023-01-10T16:49:43.397Z,101070.97
2023-01-10T16:52:49.010Z,101070.94
2023-01-10T16:55:55.274Z,101073.50
2023-01-10T16:59:00.268Z,101072.66
2023-01-10T17:02:10.123Z,101083.59
2023-01-10T17:05:16.961Z,101092.91
2023-01-10T17:08:23.820Z,101093.72
2023-01-10T17:11:32.639Z,101087.00
2023-01-10T17:14:38.748Z,101078.56
2023-01-10T17:17:45.125Z,101084.44
2023-01-10T17:20:52.291Z,101088.69
2023-01-10T17:23:58.411Z,101078.56
2023-01-10T17:27:03.732Z,101090.38
2023-01-10T17:30:10.057Z,101099.66
2023-01-10T17:33:15.757Z,101092.03
2023-01-10T17:36:22.646Z,101099.63
2023-01-10T17:39:27.862Z,101096.28
2023-01-10T17:42:33.568Z,101101.31
2023-01-10T17:45:41.672Z,101107.22
2023-01-10T17:48:50.389Z,101118.19
2023-01-10T17:51:59.670Z,101114.84
2023-01-10T17:55:08.041Z,101115.69
2023-01-10T17:58:15.168Z,101113.97
2023-01-10T18:01:24.810Z,101113.16
2023-01-10T18:04:32.206Z,101124.13
2023-01-10T18:07:41.305Z,101136.75
2023-01-10T18:10:47.372Z,101135.94
2023-01-10T18:13:53.219Z,101127.47
2023-01-10T18:16:59.910Z,101126.66
2023-01-10T18:20:07.853Z,101114.81
2023-01-10T18:23:28.281Z,101121.59
2023-01-10T18:26:44.563Z,101135.91
2023-01-10T18:29:50.082Z,101138.47
2023-01-10T18:32:57.458Z,101131.72
2023-01-10T18:36:05.089Z,101133.41
2023-01-10T18:39:12.050Z,101128.31
2023-01-10T18:42:17.184Z,101143.50
2023-01-10T18:45:26.456Z,101140.13
2023-01-10T18:48:32.224Z,101132.53
2023-01-10T18:51:38.646Z,101131.72
2023-01-10T18:54:44.915Z,101134.22
2023-01-10T18:57:52.830Z,101141.00
2023-01-10T19:00:58.897Z,101150.25
2023-01-10T19:04:06.820Z,101150.25
2023-01-10T19:07:14.371Z,101144.34
2023-01-10T19:10:21.193Z,101149.41
2023-01-10T19:13:26.507Z,101157.03
2023-01-10T19:16:33.628Z,101148.59
2023-01-10T19:19:38.948Z,101162.09
2023-01-10T19:22:46.804Z,101155.34
2023-01-10T19:25:59.537Z,101158.69
2023-01-10T19:29:05.641Z,101153.66
2023-01-10T19:32:13.428Z,101153.66
2023-01-10T19:35:23.761Z,101151.09
2023-01-10T19:38:31.294Z,101144.34
2023-01-10T19:41:39.430Z,101137.63
2023-01-10T19:44:45.395Z,101146.03
2023-01-10T19:47:51.500Z,101151.09
2023-01-10T19:50:57.318Z,101149.44
2023-01-10T19:54:02.203Z,101143.50
2023-01-10T19:57:09.536Z,101138.47
2023-01-10T20:00:15.431Z,101146.03
2023-01-10T20:03:24.896Z,101144.38
2023-01-10T20:06:32.450Z,101133.41
2023-01-10T20:09:37.720Z,101142.66
2023-01-10T20:12:46.917Z,101146.06
2023-01-10T20:15:52.091Z,101154.50
2023-01-10T20:18:59.515Z,101150.28
2023-01-10T20:22:08.082Z,101147.75
2023-01-10T20:25:14.079Z,101151.13
2023-01-10T20:28:26.332Z,101154.50
2023-01-10T20:31:32.522Z,101144.38
2023-01-10T20:34:38.816Z,101151.97
2023-01-10T20:37:44.406Z,101151.13
2023-01-10T20:40:50.036Z,101157.84
2023-01-10T20:44:01.633Z,101154.50
2023-01-10T20:47:08.051Z,101166.31
2023-01-10T20:50:14.824Z,101157.84
2023-01-10T20:53:22.124Z,101162.94
2023-01-10T20:56:30.204Z,101161.22
2023-01-10T20:59:38.032Z,101162.91
2023-01-10T21:02:45.709Z,101165.47
2023-01-10T21:05:52.678Z,101174.72
2023-01-10T21:09:00.740Z,101162.94
2023-01-10T21:12:22.100Z,101157.03
2023-01-10T21:15:30.994Z,101159.56
2023-01-10T21:18:41.229Z,101152.78
2023-01-10T21:21:46.398Z,101161.22
2023-01-10T21:24:56.352Z,101156.19
2023-01-10T21:28:09.236Z,101157.88
2023-01-10T21:31:20.980Z,101153.63
2023-01-10T21:34:26.190Z,101154.44
2023-01-10T21:37:31.638Z,101151.09
2023-01-10T21:40:37.832Z,101148.56
2023-01-10T21:43:46.242Z,101157.00
2023-01-10T21:46:54.170Z,101162.91
2023-01-10T21:50:02.020Z,101163.75
2023-01-10T21:53:10.620Z,101148.59
2023-01-10T21:56:17.012Z,101168.81
2023-01-10T21:59:26.033Z,101164.59
2023-01-10T22:02:33.685Z,101161.22
2023-01-10T22:05:39.292Z,101151.09
2023-01-10T22:08:44.939Z,101155.31
2023-01-10T22:11:50.626Z,101150.25
2023-01-10T22:14:55.608Z,101156.97
2023-01-10T22:18:03.334Z,101156.97
2023-01-10T22:21:09.887Z,101156.13
2023-01-10T22:24:15.146Z,101150.25
2023-01-10T22:27:20.833Z,101155.28
2023-01-10T22:30:26.084Z,101148.56
2023-01-10T22:33:34.475Z,101162.06
2023-01-10T22:36:39.800Z,101162.88
2023-01-10T22:39:47.078Z,101165.41
2023-01-10T22:42:54.769Z,101161.19
2023-01-10T22:45:59.783Z,101155.31
2023-01-10T22:49:06.529Z,101168.81
2023-01-10T22:52:14.582Z,101171.34
2023-01-10T22:55:20.466Z,101177.25
2023-01-10T22:58:25.734Z,101182.31
2023-01-10T23:01:30.980Z,101173.88
2023-01-10T23:04:37.633Z,101167.13
2023-01-10T23:07:43.080Z,101177.22
2023-01-10T23:10:49.902Z,101173.03
2023-01-10T23:13:55.291Z,101167.13
2023-01-10T23:17:00.523Z,101163.75
2023-01-10T23:20:09.154Z,101174.72
2023-01-10T23:23:14.448Z,101182.31
2023-01-10T23:26:20.061Z,101168.00
2023-01-10T23:29:25.402Z,101168.81
2023-01-10T23:32:30.756Z,101173.00
2023-01-10T23:35:37.544Z,101158.69
2023-01-10T23:38:42.771Z,101167.97
2023-01-10T23:41:47.908Z,101160.38
2023-01-10T23:44:53.313Z,101149.41
2023-01-10T23:47:58.592Z,101144.34
2023-01-10T23:51:07.851Z,101148.59
2023-01-10T23:54:12.593Z,101151.09
2023-01-10T23:57:17.867Z,101147.75
